createdAt,value
2023-05-22T00:01:37.580Z,15.55
2023-05-22T00:04:04.718Z,8.43
2023-05-22T00:06:31.509Z,14.40
2023-05-22T00:08:58.034Z,6.43
2023-05-22T00:11:24.632Z,7.05
2023-05-22T00:13:51.412Z,9.50
2023-05-22T00:16:17.935Z,8.02
2023-05-22T00:18:44.628Z,5.55
2023-05-22T00:21:11.478Z,5.47
2023-05-22T00:23:38.097Z,6.70
2023-05-22T00:26:04.837Z,5.22
2023-05-22T00:28:31.599Z,7.45
2023-05-22T00:30:58.186Z,5.72
2023-05-22T00:33:24.880Z,5.22
2023-05-22T00:35:51.546Z,5.75
2023-05-22T00:38:32.712Z,3.92
2023-05-22T00:41:00.796Z,6.97
2023-05-22T00:43:27.807Z,7.78
2023-05-22T00:45:54.585Z,7.95
2023-05-22T00:48:21.881Z,6.82
2023-05-22T00:50:50.082Z,7.05
2023-05-22T00:53:18.337Z,6.40
2023-05-22T00:55:45.209Z,10.45
2023-05-22T00:58:17.520Z,6.07
2023-05-22T01:00:45.311Z,7.32
2023-05-22T01:03:12.718Z,6.50
2023-05-22T01:05:40.746Z,9.25
2023-05-22T01:08:08.584Z,5.25
2023-05-22T01:10:37.692Z,5.57
2023-05-22T01:13:28.535Z,7.38
2023-05-22T01:16:37.255Z,7.95
2023-05-22T01:19:47.605Z,11.45
2023-05-22T01:22:32.680Z,6.22
2023-05-22T01:25:28.865Z,7.27
2023-05-22T01:28:33.707Z,5.75
2023-05-22T01:31:14.238Z,6.55
2023-05-22T01:33:48.210Z,7.97
2023-05-22T01:36:20.263Z,14.18
2023-05-22T01:38:47.776Z,7.25
2023-05-22T01:41:14.912Z,6.53
2023-05-22T01:43:42.453Z,6.68
2023-05-22T01:46:09.062Z,6.32
2023-05-22T01:48:35.840Z,13.20
2023-05-22T01:51:07.792Z,5.82
2023-05-22T01:53:46.054Z,5.80
2023-05-22T01:56:16.536Z,6.35
2023-05-22T01:58:49.483Z,5.03
2023-05-22T02:01:19.529Z,7.97
2023-05-22T02:03:48.577Z,6.30
2023-05-22T02:06:17.106Z,6.90
2023-05-22T02:08:44.059Z,9.63
2023-05-22T02:11:12.500Z,6.20
2023-05-22T02:13:39.814Z,10.68
2023-05-22T02:16:07.231Z,8.02
2023-05-22T02:18:34.078Z,8.48
2023-05-22T02:21:01.044Z,11.02
2023-05-22T02:23:29.581Z,7.18
2023-05-22T02:25:56.581Z,9.50
2023-05-22T02:28:23.710Z,10.20
2023-05-22T02:30:50.467Z,8.57
2023-05-22T02:33:18.522Z,11.77
2023-05-22T02:35:45.643Z,9.98
2023-05-22T02:38:12.820Z,6.20
2023-05-22T02:40:40.233Z,8.38
2023-05-22T02:43:07.132Z,9.15
2023-05-22T02:45:33.803Z,9.23
2023-05-22T02:48:03.374Z,8.68
2023-05-22T02:50:30.316Z,7.50
2023-05-22T02:52:56.950Z,7.22
2023-05-22T02:55:23.690Z,7.82
2023-05-22T02:57:50.234Z,8.52
2023-05-22T03:00:17.387Z,8.70
2023-05-22T03:02:44.161Z,7.22
2023-05-22T03:05:10.907Z,7.85
2023-05-22T03:07:37.703Z,9.13
2023-05-22T03:10:04.646Z,8.80
2023-05-22T03:12:31.241Z,11.13
2023-05-22T03:14:58.245Z,7.10
2023-05-22T03:17:24.926Z,8.60
2023-05-22T03:19:51.669Z,11.38
2023-05-22T03:22:21.417Z,7.75
2023-05-22T03:24:48.083Z,9.27
2023-05-22T03:27:17.068Z,10.38
2023-05-22T03:29:43.703Z,10.52
2023-05-22T03:32:10.997Z,10.43
2023-05-22T03:34:37.690Z,9.90
2023-05-22T03:37:08.977Z,10.25
2023-05-22T03:39:36.146Z,9.55
2023-05-22T03:42:16.383Z,10.93
2023-05-22T03:44:42.980Z,10.30
2023-05-22T03:47:09.636Z,13.45
2023-05-22T03:49:36.394Z,10.23
2023-05-22T03:52:04.989Z,13.02
2023-05-22T03:54:31.618Z,10.02
2023-05-22T03:56:58.198Z,10.57
2023-05-22T03:59:24.769Z,8.38
2023-05-22T04:01:51.420Z,15.70
2023-05-22T04:04:18.023Z,8.88
2023-05-22T04:06:45.011Z,12.68
2023-05-22T04:09:13.068Z,11.65
2023-05-22T04:11:39.900Z,11.88
2023-05-22T04:14:06.625Z,12.95
2023-05-22T04:16:33.744Z,8.82
2023-05-22T04:19:03.394Z,10.57
2023-05-22T04:21:34.393Z,10.68
2023-05-22T04:24:07.085Z,8.68
2023-05-22T04:26:34.057Z,12.15
2023-05-22T04:29:01.198Z,10.30
2023-05-22T04:31:28.587Z,12.15
2023-05-22T04:33:55.990Z,10.73
2023-05-22T04:36:25.853Z,11.90
2023-05-22T04:38:53.957Z,9.98
2023-05-22T04:41:22.664Z,10.35
2023-05-22T04:43:52.852Z,10.73
2023-05-22T04:46:19.787Z,10.57
2023-05-22T04:48:47.149Z,9.13
2023-05-22T04:51:14.396Z,11.38
2023-05-22T04:53:41.200Z,10.35
2023-05-22T04:56:07.859Z,15.35
2023-05-22T04:58:34.672Z,12.38
2023-05-22T05:01:01.349Z,11.80
2023-05-22T05:03:28.586Z,10.35
2023-05-22T05:05:56.591Z,10.50
2023-05-22T05:08:23.244Z,13.30
2023-05-22T05:10:49.872Z,10.82
2023-05-22T05:13:17.340Z,14.05
2023-05-22T05:15:45.648Z,13.20
2023-05-22T05:18:12.384Z,12.88
2023-05-22T05:20:39.236Z,12.73
2023-05-22T05:23:06.136Z,15.30
2023-05-22T05:25:33.091Z,10.63
2023-05-22T05:28:00.180Z,12.55
2023-05-22T05:30:27.601Z,9.73
2023-05-22T05:33:08.573Z,11.50
2023-05-22T05:35:42.686Z,10.90
2023-05-22T05:38:11.103Z,10.45
2023-05-22T05:40:40.083Z,11.65
2023-05-22T05:43:09.291Z,11.85
2023-05-22T05:45:36.402Z,11.27
2023-05-22T05:48:03.139Z,10.32
2023-05-22T05:50:30.101Z,13.35
2023-05-22T05:52:57.111Z,12.32
2023-05-22T05:55:23.873Z,13.57
2023-05-22T05:57:51.263Z,14.07
2023-05-22T06:00:35.083Z,13.40
2023-05-22T06:03:01.836Z,12.82
2023-05-22T06:05:52.443Z,13.20
2023-05-22T06:08:34.446Z,12.23
2023-05-22T06:11:01.603Z,20.13
2023-05-22T06:13:38.101Z,12.68
2023-05-22T06:16:06.743Z,12.55
2023-05-22T06:18:34.511Z,12.10
2023-05-22T06:21:01.225Z,14.07
2023-05-22T06:23:27.865Z,12.85
2023-05-22T06:25:55.544Z,12.27
2023-05-22T06:28:22.714Z,12.02
2023-05-22T06:30:49.425Z,15.25
2023-05-22T06:33:18.918Z,15.30
2023-05-22T06:35:45.715Z,13.00
2023-05-22T06:38:12.642Z,13.18
2023-05-22T06:40:41.395Z,11.32
2023-05-22T06:43:13.699Z,12.10
2023-05-22T06:45:51.242Z,13.50
2023-05-22T06:48:36.029Z,14.45
2023-05-22T06:51:10.840Z,15.55
2023-05-22T06:53:39.505Z,15.82
2023-05-22T06:56:11.351Z,13.65
2023-05-22T06:58:56.459Z,15.95
2023-05-22T07:01:31.371Z,17.98
2023-05-22T07:04:05.412Z,15.30
2023-05-22T07:06:52.932Z,12.38
2023-05-22T07:09:20.070Z,17.40
2023-05-22T07:11:48.986Z,16.67
2023-05-22T07:14:16.433Z,13.23
2023-05-22T07:16:43.742Z,12.65
2023-05-22T07:19:11.860Z,14.75
2023-05-22T07:21:39.879Z,16.65
2023-05-22T07:24:10.880Z,17.05
2023-05-22T07:26:46.553Z,19.48
2023-05-22T07:29:14.155Z,13.88
2023-05-22T07:31:42.166Z,18.55
2023-05-22T07:34:09.385Z,14.48
2023-05-22T07:36:36.095Z,18.63
2023-05-22T07:39:04.990Z,14.82
2023-05-22T07:41:35.868Z,17.02
2023-05-22T07:44:02.589Z,18.35
2023-05-22T07:46:35.370Z,17.15
2023-05-22T07:49:10.793Z,22.65
2023-05-22T07:51:41.003Z,20.38
2023-05-22T07:54:08.292Z,18.13
2023-05-22T07:56:39.568Z,22.55
2023-05-22T07:59:07.464Z,25.48
2023-05-22T08:01:34.065Z,19.55
2023-05-22T08:04:01.068Z,24.70
2023-05-22T08:06:27.917Z,20.95
2023-05-22T08:08:54.540Z,18.80
2023-05-22T08:11:21.430Z,23.52
2023-05-22T08:13:48.203Z,18.05
2023-05-22T08:16:14.856Z,30.05
2023-05-22T08:18:41.548Z,17.83
2023-05-22T08:21:08.148Z,23.33
2023-05-22T08:23:36.354Z,23.67
2023-05-22T08:26:03.096Z,20.17
2023-05-22T08:28:29.743Z,23.88
2023-05-22T08:30:56.509Z,26.38
2023-05-22T08:33:23.262Z,21.17
2023-05-22T08:35:49.863Z,18.60
2023-05-22T08:38:17.551Z,23.30
2023-05-22T08:40:48.687Z,21.95
2023-05-22T08:43:15.839Z,21.20
2023-05-22T08:45:44.092Z,21.88
2023-05-22T08:48:13.950Z,18.83
2023-05-22T08:50:46.114Z,23.52
2023-05-22T08:53:15.309Z,16.73
2023-05-22T08:55:42.485Z,19.10
2023-05-22T08:58:11.588Z,15.98
2023-05-22T09:00:38.516Z,19.02
2023-05-22T09:03:06.928Z,16.75
2023-05-22T09:05:34.163Z,14.25
2023-05-22T09:08:16.147Z,15.30
2023-05-22T09:10:46.240Z,16.33
2023-05-22T09:13:27.362Z,17.35
2023-05-22T09:16:08.119Z,18.13
2023-05-22T09:18:37.091Z,16.98
2023-05-22T09:21:08.974Z,16.17
2023-05-22T09:23:41.763Z,16.52
2023-05-22T09:26:08.356Z,22.73
2023-05-22T09:28:36.837Z,16.77
2023-05-22T09:31:04.309Z,17.48
2023-05-22T09:33:32.190Z,17.35
2023-05-22T09:35:59.289Z,17.75
2023-05-22T09:38:29.240Z,14.57
2023-05-22T09:40:56.741Z,22.52
2023-05-22T09:43:25.613Z,20.10
2023-05-22T09:46:01.769Z,18.63
2023-05-22T09:48:28.882Z,18.27
2023-05-22T09:50:57.132Z,20.00
2023-05-22T09:53:28.087Z,19.90
2023-05-22T09:55:58.120Z,15.52
2023-05-22T09:58:27.014Z,22.08
2023-05-22T10:00:58.177Z,26.67
2023-05-22T10:03:27.154Z,21.52
2023-05-22T10:05:56.294Z,17.00
2023-05-22T10:08:28.501Z,25.25
2023-05-22T10:10:55.483Z,20.77
2023-05-22T10:13:22.259Z,23.48
2023-05-22T10:15:50.427Z,18.08
2023-05-22T10:18:17.724Z,18.80
2023-05-22T10:20:47.013Z,22.45
2023-05-22T10:23:16.260Z,20.73
2023-05-22T10:25:44.306Z,22.40
2023-05-22T10:28:12.095Z,18.42
2023-05-22T10:30:58.393Z,18.60
2023-05-22T10:33:51.250Z,17.45
2023-05-22T10:36:41.939Z,19.33
2023-05-22T10:39:44.208Z,15.77
2023-05-22T10:42:14.240Z,17.90
2023-05-22T10:44:41.356Z,15.68
2023-05-22T10:47:13.189Z,17.73
2023-05-22T10:49:46.689Z,18.38
2023-05-22T10:52:18.400Z,18.17
2023-05-22T10:54:46.245Z,23.13
2023-05-22T10:57:17.184Z,18.80
2023-05-22T10:59:47.105Z,20.23
2023-05-22T11:02:22.233Z,16.17
2023-05-22T11:07:15.984Z,18.92
2023-05-22T11:09:48.029Z,17.98
2023-05-22T11:12:24.601Z,26.40
2023-05-22T11:14:58.648Z,23.73
2023-05-22T11:17:52.008Z,23.20
2023-05-22T11:20:25.554Z,18.95
2023-05-22T11:22:59.922Z,21.52
2023-05-22T11:25:28.161Z,21.05
2023-05-22T11:27:55.928Z,20.27
2023-05-22T11:30:28.265Z,21.10
2023-05-22T11:32:55.153Z,19.38
2023-05-22T11:35:22.298Z,21.42
2023-05-22T11:37:51.297Z,21.80
2023-05-22T11:40:25.875Z,23.00
2023-05-22T11:42:53.706Z,22.15
2023-05-22T11:45:20.559Z,39.85
2023-05-22T11:47:48.744Z,19.70
2023-05-22T11:50:22.557Z,20.25
2023-05-22T11:52:53.708Z,18.70
2023-05-22T11:55:20.387Z,29.75
2023-05-22T11:57:47.969Z,26.33
2023-05-22T12:00:15.265Z,21.70
2023-05-22T12:02:49.261Z,24.40
2023-05-22T12:05:16.602Z,26.85
2023-05-22T12:07:43.599Z,26.23
2023-05-22T12:10:10.955Z,25.35
2023-05-22T12:12:37.918Z,27.40
2023-05-22T12:15:08.255Z,20.45
2023-05-22T12:17:38.509Z,24.10
2023-05-22T12:20:07.033Z,26.58
2023-05-22T12:22:33.824Z,28.38
2023-05-22T12:25:00.475Z,27.27
2023-05-22T12:27:33.346Z,27.70
2023-05-22T12:30:09.266Z,22.05
2023-05-22T12:32:36.540Z,24.23
2023-05-22T12:35:03.180Z,23.27
2023-05-22T12:37:31.992Z,22.95
2023-05-22T12:40:03.696Z,26.52
2023-05-22T12:42:30.508Z,24.80
2023-05-22T12:44:58.075Z,26.00
2023-05-22T12:47:25.307Z,22.00
2023-05-22T12:49:52.684Z,27.88
2023-05-22T12:52:19.421Z,24.52
2023-05-22T12:54:46.367Z,20.73
2023-05-22T12:57:13.061Z,26.20
2023-05-22T12:59:39.680Z,26.25
2023-05-22T13:02:06.937Z,24.88
2023-05-22T13:04:33.764Z,25.17
2023-05-22T13:07:01.028Z,27.98
2023-05-22T13:09:27.828Z,25.40
2023-05-22T13:11:55.070Z,24.73
2023-05-22T13:14:21.718Z,83.13
2023-05-22T13:16:48.421Z,25.67
2023-05-22T13:19:15.214Z,28.80
2023-05-22T13:21:43.404Z,22.80
2023-05-22T13:24:09.997Z,27.10
2023-05-22T13:26:36.544Z,21.60
2023-05-22T13:29:03.301Z,30.20
2023-05-22T13:31:31.347Z,31.10
2023-05-22T13:33:57.931Z,19.98
2023-05-22T13:36:24.629Z,20.55
2023-05-22T13:38:51.173Z,14.90
2023-05-22T13:41:17.877Z,17.63
2023-05-22T13:43:44.498Z,16.88
2023-05-22T13:46:11.352Z,26.15
2023-05-22T13:48:37.910Z,18.33
2023-05-22T13:51:04.860Z,19.13
2023-05-22T13:53:31.502Z,18.13
2023-05-22T13:55:58.300Z,21.80
2023-05-22T13:58:25.569Z,18.33
2023-05-22T14:00:52.131Z,18.90
2023-05-22T14:03:18.798Z,21.55
2023-05-22T14:05:45.513Z,19.77
2023-05-22T14:08:12.616Z,16.77
2023-05-22T14:10:39.632Z,17.17
2023-05-22T14:13:06.406Z,16.02
2023-05-22T14:15:33.170Z,17.52
2023-05-22T14:17:59.931Z,17.15
2023-05-22T14:20:26.575Z,15.68
2023-05-22T14:22:57.736Z,14.52
2023-05-22T14:25:26.076Z,16.52
2023-05-22T14:27:52.801Z,16.77
2023-05-22T14:30:19.592Z,15.20
2023-05-22T14:32:46.803Z,15.63
2023-05-22T14:35:13.683Z,15.13
2023-05-22T14:37:40.333Z,15.38
2023-05-22T14:40:10.817Z,18.02
2023-05-22T14:42:37.456Z,16.05
2023-05-22T14:45:04.596Z,11.90
2023-05-22T14:47:31.168Z,14.77
2023-05-22T14:50:03.050Z,16.90
2023-05-22T14:52:41.131Z,17.23
2023-05-22T14:55:08.019Z,19.83
2023-05-22T14:57:34.739Z,13.65
2023-05-22T15:00:01.478Z,16.38
2023-05-22T15:02:28.109Z,17.10
2023-05-22T15:04:54.955Z,14.85
2023-05-22T15:07:24.386Z,11.70
2023-05-22T15:09:53.490Z,12.40
2023-05-22T15:12:21.893Z,11.05
2023-05-22T15:14:49.333Z,13.10
2023-05-22T15:17:16.167Z,14.82
2023-05-22T15:19:45.263Z,12.35
2023-05-22T15:22:19.514Z,11.77
2023-05-22T15:24:48.100Z,14.48
2023-05-22T15:27:14.869Z,14.65
2023-05-22T15:29:41.961Z,16.33
2023-05-22T15:32:09.038Z,11.23
2023-05-22T15:34:35.789Z,11.23
2023-05-22T15:37:02.439Z,13.50
2023-05-22T15:39:29.612Z,11.15
2023-05-22T15:42:05.889Z,10.45
2023-05-22T15:44:33.732Z,11.82
2023-05-22T15:47:00.349Z,14.13
2023-05-22T15:49:30.224Z,9.40
2023-05-22T15:51:58.486Z,10.82
2023-05-22T15:54:25.227Z,11.02
2023-05-22T15:56:51.981Z,10.55
2023-05-22T15:59:18.553Z,11.35
2023-05-22T16:01:45.724Z,9.98
2023-05-22T16:04:12.691Z,11.65
2023-05-22T16:06:39.435Z,16.67
2023-05-22T16:09:06.136Z,11.23
2023-05-22T16:11:33.600Z,13.13
2023-05-22T16:14:00.298Z,20.75
2023-05-22T16:16:27.157Z,15.93
2023-05-22T16:18:53.906Z,13.52
2023-05-22T16:21:20.910Z,21.88
2023-05-22T16:23:47.568Z,12.82
2023-05-22T16:26:14.901Z,17.75
2023-05-22T16:28:41.458Z,17.52
2023-05-22T16:31:08.166Z,12.77
2023-05-22T16:33:37.130Z,15.77
2023-05-22T16:36:04.390Z,22.17
2023-05-22T16:38:31.123Z,13.90
2023-05-22T16:40:57.992Z,13.82
2023-05-22T16:43:24.656Z,13.75
2023-05-22T16:45:51.481Z,13.18
2023-05-22T16:48:18.530Z,16.08
2023-05-22T16:50:46.596Z,10.10
2023-05-22T16:53:16.633Z,10.68
2023-05-22T16:55:43.896Z,14.77
2023-05-22T16:58:12.686Z,10.43
2023-05-22T17:00:40.194Z,9.25
2023-05-22T17:03:08.037Z,8.35
2023-05-22T17:05:35.178Z,10.05
2023-05-22T17:08:01.758Z,10.93
2023-05-22T17:10:28.450Z,16.70
2023-05-22T17:12:55.049Z,18.92
2023-05-22T17:15:21.725Z,14.23
2023-05-22T17:17:48.308Z,16.55
2023-05-22T17:20:15.026Z,12.20
2023-05-22T17:22:42.796Z,11.85
2023-05-22T17:25:09.898Z,12.98
2023-05-22T17:27:37.061Z,10.82
2023-05-22T17:30:05.492Z,9.80
2023-05-22T17:32:32.438Z,12.52
2023-05-22T17:35:00.089Z,10.65
2023-05-22T17:37:26.663Z,10.90
2023-05-22T17:39:53.808Z,10.90
2023-05-22T17:42:20.449Z,9.68
2023-05-22T17:44:47.098Z,9.75
2023-05-22T17:47:13.649Z,15.50
2023-05-22T17:49:40.407Z,13.52
2023-05-22T17:52:08.643Z,10.15
2023-05-22T17:54:36.063Z,10.30
2023-05-22T17:57:05.472Z,11.80
2023-05-22T17:59:32.331Z,9.75
2023-05-22T18:01:59.068Z,10.55
2023-05-22T18:04:25.910Z,14.00
2023-05-22T18:06:52.670Z,11.45
2023-05-22T18:09:19.264Z,13.05
2023-05-22T18:11:45.890Z,18.73
2023-05-22T18:14:12.572Z,11.45
2023-05-22T18:16:39.128Z,13.02
2023-05-22T18:19:05.873Z,15.10
2023-05-22T18:21:32.409Z,14.43
2023-05-22T18:23:59.158Z,13.88
2023-05-22T18:26:26.778Z,12.25
2023-05-22T18:28:53.447Z,12.98
2023-05-22T18:31:20.158Z,11.80
2023-05-22T18:33:47.035Z,14.63
2023-05-22T18:36:13.798Z,16.65
2023-05-22T18:38:40.429Z,11.77
2023-05-22T18:41:07.879Z,14.77
2023-05-22T18:43:34.544Z,13.30
2023-05-22T18:46:01.188Z,15.90
2023-05-22T18:48:28.221Z,16.90
2023-05-22T18:50:57.260Z,12.73
2023-05-22T18:53:25.206Z,14.75
2023-05-22T18:55:52.447Z,15.20
2023-05-22T18:58:19.434Z,17.95
2023-05-22T19:00:46.138Z,15.75
2023-05-22T19:03:13.872Z,13.80
2023-05-22T19:05:40.594Z,13.68
2023-05-22T19:08:07.267Z,16.08
2023-05-22T19:10:33.938Z,11.60
2023-05-22T19:13:00.637Z,10.68
2023-05-22T19:15:27.261Z,12.52
2023-05-22T19:17:53.961Z,11.55
2023-05-22T19:20:20.707Z,10.40
2023-05-22T19:22:47.320Z,8.40
2023-05-22T19:25:13.902Z,7.63
2023-05-22T19:27:40.616Z,7.13
2023-05-22T19:30:07.680Z,9.38
2023-05-22T19:32:34.362Z,6.63
2023-05-22T19:35:01.442Z,7.30
2023-05-22T19:37:29.128Z,6.57
2023-05-22T19:39:55.723Z,5.70
2023-05-22T19:42:22.300Z,5.25
2023-05-22T19:44:48.854Z,4.57
2023-05-22T19:47:15.397Z,11.13
2023-05-22T19:49:41.936Z,6.00
2023-05-22T19:52:08.724Z,5.57
2023-05-22T19:54:35.790Z,5.22
2023-05-22T19:57:03.164Z,3.33
2023-05-22T19:59:29.751Z,7.55
2023-05-22T20:01:56.439Z,5.43
2023-05-22T20:04:23.194Z,5.32
2023-05-22T20:06:50.708Z,5.03
2023-05-22T20:09:17.310Z,5.90
2023-05-22T20:11:44.837Z,3.97
2023-05-22T20:14:12.905Z,8.70
2023-05-22T20:16:39.497Z,6.40
2023-05-22T20:19:06.115Z,9.30
2023-05-22T20:21:32.798Z,5.78
2023-05-22T20:23:59.457Z,9.57
2023-05-22T20:26:26.212Z,7.00
2023-05-22T20:28:52.766Z,5.47
2023-05-22T20:31:19.453Z,5.10
2023-05-22T20:33:46.094Z,4.57
2023-05-22T20:36:14.852Z,5.13
2023-05-22T20:38:42.514Z,10.68
2023-05-22T20:41:12.707Z,13.63
2023-05-22T20:43:42.991Z,6.82
2023-05-22T20:46:10.136Z,5.88
2023-05-22T20:48:36.826Z,7.68
2023-05-22T20:51:03.582Z,7.85
2023-05-22T20:53:30.131Z,3.38
2023-05-22T20:55:57.449Z,5.88
2023-05-22T20:58:24.056Z,7.20
2023-05-22T21:00:50.709Z,5.03
2023-05-22T21:03:17.771Z,4.50
2023-05-22T21:05:44.516Z,5.43
2023-05-22T21:08:11.128Z,5.97
2023-05-22T21:10:37.987Z,8.88
2023-05-22T21:13:04.624Z,7.43
2023-05-22T21:15:31.245Z,4.88
2023-05-22T21:17:57.867Z,6.78
2023-05-22T21:20:24.571Z,6.28
2023-05-22T21:22:51.122Z,6.63
2023-05-22T21:25:17.767Z,6.40
2023-05-22T21:27:46.486Z,9.05
2023-05-22T21:30:14.639Z,6.97
2023-05-22T21:32:41.964Z,7.35
2023-05-22T21:35:09.206Z,7.95
2023-05-22T21:37:35.771Z,7.25
2023-05-22T21:40:02.549Z,6.75
2023-05-22T21:42:41.848Z,4.93
2023-05-22T21:45:12.318Z,7.22
2023-05-22T21:47:38.893Z,10.07
2023-05-22T21:50:06.114Z,5.00
2023-05-22T21:52:32.644Z,4.80
2023-05-22T21:55:01.314Z,9.85
2023-05-22T21:57:28.385Z,8.38
2023-05-22T21:59:55.310Z,6.47
2023-05-22T22:02:21.978Z,10.05
2023-05-22T22:04:48.658Z,7.57
2023-05-22T22:07:15.261Z,5.30
2023-05-22T22:09:41.928Z,4.78
2023-05-22T22:12:08.588Z,6.93
2023-05-22T22:14:35.365Z,5.53
2023-05-22T22:17:02.024Z,8.85
2023-05-22T22:19:28.891Z,7.35
2023-05-22T22:21:55.690Z,7.13
2023-05-22T22:24:22.296Z,7.03
2023-05-22T22:26:49.226Z,9.13
2023-05-22T22:29:16.113Z,6.22
2023-05-22T22:31:42.782Z,6.72
2023-05-22T22:34:09.435Z,13.05
2023-05-22T22:36:35.979Z,9.48
2023-05-22T22:39:02.601Z,9.07
2023-05-22T22:41:29.149Z,7.97
2023-05-22T22:43:55.985Z,5.57
2023-05-22T22:46:22.595Z,8.30
2023-05-22T22:48:49.270Z,8.77
2023-05-22T22:51:15.905Z,8.35
2023-05-22T22:53:42.531Z,7.20
2023-05-22T22:56:09.300Z,7.55
2023-05-22T22:58:36.437Z,9.95
2023-05-22T23:01:04.947Z,5.13
2023-05-22T23:03:31.683Z,7.18
2023-05-22T23:05:58.257Z,9.07
2023-05-22T23:08:24.858Z,7.72
2023-05-22T23:10:51.443Z,8.13
2023-05-22T23:13:18.150Z,8.43
2023-05-22T23:15:44.806Z,8.38
2023-05-22T23:18:13.842Z,9.38
2023-05-22T23:20:40.521Z,8.05
2023-05-22T23:23:07.249Z,10.20
2023-05-22T23:25:33.880Z,10.50
2023-05-22T23:28:00.557Z,6.50
2023-05-22T23:30:27.123Z,10.35
2023-05-22T23:32:53.786Z,10.25
2023-05-22T23:35:20.409Z,10.88
2023-05-22T23:37:47.009Z,7.68
2023-05-22T23:40:13.556Z,8.20
2023-05-22T23:42:40.727Z,7.47
2023-05-22T23:45:07.873Z,11.88
2023-05-22T23:47:34.614Z,10.52
2023-05-22T23:50:01.178Z,8.52
2023-05-22T23:52:27.891Z,8.50
2023-05-22T23:54:54.433Z,7.47
2023-05-22T23:57:21.143Z,5.82
2023-05-22T23:59:47.674Z,8.65
